Main page
METAR-TAF:

METAR-TAF

Airports :

Jackson Municipal Airport

Jackson, Minnesota, United States

latitude: 43-39N, longitude: 094-59W, elevation: 1446 ft

Current weather observation

The report was made 20 minutes ago, at 03:55 UTC
Wind 6 mph from the North
Temperature 63°F
Humidity 88%
Pressure 29.89 in. Hg
Visibility: 4 miles
Scattered clouds at a height of 2500 ft
Broken clouds at a height of 6000 ft
Overcast at a height of 7000 ft

METAR: KMJQ 260355Z AUTO 01005KT 4SM SCT025 BKN060 OVC070 17/15 A2989 RMK AO2 P0002 PWINO

Time: 23:15 (04:15 UTC)


TAF: missing

Weather observations and forecasts of more than 4000 airports (METAR and TAF reports).

The available stations are represented by yellow and red dots on the map.

Hover mouse over dot to see the name of the station.

Then click to see weather observations and forecasts.

To change the map : click on the green buttons with a black cross to zoom in, on the green button with a dash to zoom out, or on the green arrows for adjacent maps.


METAR-TAF: